Time;durP1;ratioP1;P1;durP2;ratioP2;P2;SDS_P1;SDS_P2;PMS_P1;PMS_P2;Temp;Humidity;BMP_temperature;BMP_pressure;BME280_temperature;BME280_humidity;BME280_pressure;Samples;Min_cycle;Max_cycle;Signal;HPM_P1;HPM_P2
2023/08/01 00:00:40;;;;;;;2.90;1.00;;;17.00;99.90;;;;;;5044282;28;20033;-78
2023/08/01 00:03:05;;;;;;;1.83;1.35;;;16.90;99.90;;;;;;5060727;28;20448;-87
2023/08/01 00:05:31;;;;;;;2.50;1.48;;;17.00;99.90;;;;;;5059779;28;20038;-78
2023/08/01 00:07:57;;;;;;;2.08;1.20;;;16.90;99.90;;;;;;5047596;28;20029;-79
2023/08/01 00:10:22;;;;;;;3.38;1.30;;;17.00;99.90;;;;;;5038931;28;20033;-76
2023/08/01 00:12:48;;;;;;;2.00;1.30;;;16.90;99.90;;;;;;5046615;28;20505;-78
2023/08/01 00:15:13;;;;;;;1.25;1.05;;;17.00;99.90;;;;;;5046843;28;20033;-77
2023/08/01 00:17:39;;;;;;;1.30;1.20;;;16.90;99.90;;;;;;5062800;28;20033;-87
2023/08/01 00:20:06;;;;;;;2.45;1.50;;;16.80;99.90;;;;;;5056245;28;20434;-79
2023/08/01 00:22:32;;;;;;;2.25;1.40;;;16.80;99.90;;;;;;5038481;28;20070;-79
2023/08/01 00:24:58;;;;;;;13.75;1.42;;;16.90;99.90;;;;;;5042708;28;20444;-79
2023/08/01 00:27:26;;;;;;;3.67;1.60;;;16.90;99.90;;;;;;5050801;28;20503;-80
2023/08/01 00:29:52;;;;;;;2.45;1.30;;;16.90;99.90;;;;;;5036994;28;20167;-82
2023/08/01 00:32:17;;;;;;;3.05;1.70;;;16.90;99.90;;;;;;5041965;28;20131;-76
2023/08/01 00:34:43;;;;;;;5.10;1.85;;;16.90;99.90;;;;;;5048978;28;20037;-78
2023/08/01 00:37:09;;;;;;;2.05;1.50;;;16.90;99.90;;;;;;5050987;28;20036;-78
2023/08/01 00:39:36;;;;;;;3.08;1.98;;;16.80;99.90;;;;;;5047243;28;20455;-78
2023/08/01 00:42:03;;;;;;;2.08;1.52;;;16.90;99.90;;;;;;5046596;28;20040;-78
2023/08/01 00:44:28;;;;;;;1.40;1.25;;;16.90;99.90;;;;;;5042264;28;20039;-78
2023/08/01 00:46:54;;;;;;;3.35;1.63;;;16.90;99.90;;;;;;5045734;28;20471;-83
2023/08/01 00:49:23;;;;;;;3.95;1.90;;;16.90;99.90;;;;;;5046132;28;20021;-78
2023/08/01 00:51:48;;;;;;;2.83;1.95;;;17.00;99.90;;;;;;5049368;28;20401;-80
2023/08/01 00:54:14;;;;;;;4.78;2.63;;;17.00;99.90;;;;;;5054406;28;20052;-77
2023/08/01 00:56:44;;;;;;;5.32;1.73;;;17.00;99.90;;;;;;5046132;28;20025;-79
2023/08/01 00:59:12;;;;;;;7.22;2.50;;;17.00;99.90;;;;;;5053936;28;20052;-83
2023/08/01 01:01:38;;;;;;;3.35;2.13;;;17.00;99.90;;;;;;5045399;28;20086;-79
2023/08/01 01:04:03;;;;;;;3.40;2.15;;;17.00;99.90;;;;;;5050403;28;20032;-77
2023/08/01 01:06:38;;;;;;;5.13;1.98;;;16.90;99.90;;;;;;5044746;28;20082;-79
2023/08/01 01:09:15;;;;;;;4.63;2.20;;;16.90;99.90;;;;;;5039789;28;20394;-77
2023/08/01 01:11:40;;;;;;;4.35;1.83;;;17.00;99.90;;;;;;5040219;28;20060;-77
2023/08/01 01:14:06;;;;;;;2.40;2.00;;;16.90;99.90;;;;;;5048544;28;20170;-78
2023/08/01 01:16:32;;;;;;;5.30;2.70;;;16.90;99.90;;;;;;5054439;28;20033;-80
2023/08/01 01:18:57;;;;;;;8.88;2.50;;;16.90;99.90;;;;;;5026525;28;20024;-77
2023/08/01 01:21:23;;;;;;;4.70;2.25;;;16.90;99.90;;;;;;5049273;28;20025;-80
2023/08/01 01:23:49;;;;;;;4.03;2.20;;;17.00;99.90;;;;;;5044439;28;20028;-78
2023/08/01 01:26:20;;;;;;;5.03;2.38;;;17.00;99.90;;;;;;5037009;28;20036;-79
2023/08/01 01:28:47;;;;;;;1.75;1.65;;;17.00;99.90;;;;;;5042556;28;20025;-78
2023/08/01 01:31:14;;;;;;;4.72;2.00;;;17.00;99.90;;;;;;5049032;28;20056;-83
2023/08/01 01:33:39;;;;;;;4.25;2.45;;;17.00;99.90;;;;;;5045299;28;20100;-78
2023/08/01 01:36:05;;;;;;;2.58;2.10;;;17.00;99.90;;;;;;5047473;28;20132;-78
2023/08/01 01:38:30;;;;;;;5.63;1.98;;;16.90;99.90;;;;;;5051358;28;20041;-79
2023/08/01 01:40:56;;;;;;;4.35;2.38;;;17.00;99.90;;;;;;5045849;28;20040;-83
2023/08/01 01:43:22;;;;;;;7.25;2.80;;;16.90;99.90;;;;;;5052538;28;20427;-79
2023/08/01 01:45:47;;;;;;;2.85;2.03;;;17.00;99.90;;;;;;5049755;28;20123;-80
2023/08/01 01:48:13;;;;;;;4.22;2.15;;;17.00;99.90;;;;;;5053151;28;20036;-79
2023/08/01 01:50:38;;;;;;;3.03;2.13;;;17.00;99.90;;;;;;5051533;28;20474;-78
2023/08/01 01:53:04;;;;;;;6.65;1.67;;;16.90;99.90;;;;;;5044132;28;20033;-78
2023/08/01 01:55:29;;;;;;;3.50;2.10;;;17.00;99.90;;;;;;5060002;28;20029;-76
2023/08/01 01:57:55;;;;;;;2.50;2.08;;;16.90;99.90;;;;;;5052309;28;20078;-79
2023/08/01 02:00:20;;;;;;;3.53;2.20;;;17.00;99.90;;;;;;5048576;28;20113;-77
2023/08/01 02:02:46;;;;;;;3.97;1.80;;;17.00;99.90;;;;;;5050742;28;20055;-78
2023/08/01 02:05:12;;;;;;;2.63;1.55;;;17.00;99.90;;;;;;5047122;28;20033;-78
2023/08/01 02:07:38;;;;;;;4.03;2.08;;;17.00;99.90;;;;;;5053998;28;20110;-78
2023/08/01 02:10:04;;;;;;;2.03;1.70;;;17.00;99.90;;;;;;5055181;28;20087;-78
2023/08/01 02:12:34;;;;;;;1.38;1.27;;;17.00;99.90;;;;;;5053393;28;20040;-78
2023/08/01 02:15:00;;;;;;;4.60;2.22;;;17.00;99.90;;;;;;5050047;28;20079;-79
2023/08/01 02:17:26;;;;;;;2.63;1.35;;;17.10;99.90;;;;;;5051768;28;20045;-78
2023/08/01 02:19:52;;;;;;;5.78;1.95;;;17.00;99.90;;;;;;5044519;28;20025;-78
2023/08/01 02:22:18;;;;;;;4.05;1.95;;;17.00;99.90;;;;;;5045027;28;20043;-78
2023/08/01 02:24:43;;;;;;;2.85;1.60;;;17.10;99.90;;;;;;5058507;28;20478;-78
2023/08/01 02:27:09;;;;;;;3.15;1.95;;;17.00;99.90;;;;;;5058980;28;20082;-78
2023/08/01 02:29:34;;;;;;;3.05;1.48;;;17.00;99.90;;;;;;5062896;28;20442;-78
2023/08/01 02:32:00;;;;;;;3.80;1.40;;;17.10;99.90;;;;;;5052751;28;20107;-77
2023/08/01 02:34:26;;;;;;;1.70;1.27;;;17.00;99.90;;;;;;5055353;28;20040;-78
2023/08/01 02:36:52;;;;;;;2.38;1.27;;;17.00;99.90;;;;;;5049902;28;20039;-78
2023/08/01 02:39:17;;;;;;;1.45;1.23;;;17.00;99.90;;;;;;5048676;28;20033;-78
2023/08/01 02:41:43;;;;;;;3.92;1.38;;;17.00;99.90;;;;;;5055274;28;20020;-78
2023/08/01 02:44:09;;;;;;;2.90;1.55;;;17.10;99.90;;;;;;5050900;28;20041;-78
2023/08/01 02:46:34;;;;;;;1.38;1.23;;;17.10;99.90;;;;;;5053281;28;20037;-78
2023/08/01 02:49:00;;;;;;;2.40;1.05;;;17.10;99.90;;;;;;5030866;28;20426;-78
2023/08/01 02:51:25;;;;;;;1.75;1.13;;;17.10;99.90;;;;;;5048255;28;20041;-78
2023/08/01 02:53:51;;;;;;;6.68;1.48;;;17.10;99.90;;;;;;5052007;28;20053;-78
2023/08/01 02:56:16;;;;;;;3.30;1.25;;;17.10;99.90;;;;;;5043945;28;20033;-78
2023/08/01 02:58:42;;;;;;;1.80;1.48;;;17.10;99.90;;;;;;5049291;28;20402;-79
2023/08/01 03:01:11;;;;;;;1.50;0.80;;;17.20;99.90;;;;;;5036451;28;20026;-78
2023/08/01 03:03:37;;;;;;;1.80;0.80;;;17.20;99.90;;;;;;5055285;28;20025;-78
2023/08/01 03:06:03;;;;;;;1.13;1.00;;;17.20;99.90;;;;;;5055378;28;20036;-78
2023/08/01 03:08:28;;;;;;;3.22;1.10;;;17.20;99.90;;;;;;5043882;28;20497;-78
2023/08/01 03:10:55;;;;;;;1.55;0.80;;;17.20;99.90;;;;;;5045517;28;20384;-78
2023/08/01 03:13:21;;;;;;;1.27;1.08;;;17.30;99.90;;;;;;5052203;28;20032;-78
2023/08/01 03:15:46;;;;;;;1.95;1.00;;;17.30;99.90;;;;;;5050441;28;20143;-85
2023/08/01 03:18:12;;;;;;;1.02;0.80;;;17.30;99.90;;;;;;5053000;28;20446;-78
2023/08/01 03:20:38;;;;;;;0.68;0.68;;;17.30;99.90;;;;;;5051716;28;20039;-78
2023/08/01 03:23:04;;;;;;;1.08;0.80;;;17.30;99.90;;;;;;5047386;28;20043;-78
2023/08/01 03:25:30;;;;;;;1.73;0.70;;;17.30;99.90;;;;;;5049457;28;20028;-78
2023/08/01 03:27:56;;;;;;;1.25;0.88;;;17.30;99.90;;;;;;5059814;28;20032;-79
2023/08/01 03:30:22;;;;;;;0.90;0.80;;;17.30;99.90;;;;;;5054308;28;20395;-83
2023/08/01 03:32:48;;;;;;;1.08;0.88;;;17.30;99.90;;;;;;5046130;28;20033;-77
2023/08/01 03:35:13;;;;;;;0.75;0.60;;;17.30;99.90;;;;;;5045731;28;20091;-78
2023/08/01 03:37:40;;;;;;;2.05;0.90;;;17.40;99.90;;;;;;5049374;28;20122;-78
2023/08/01 03:40:09;;;;;;;0.75;0.75;;;17.30;99.90;;;;;;5046775;28;20466;-83
2023/08/01 03:42:35;;;;;;;1.95;0.98;;;17.30;99.90;;;;;;5047613;28;20036;-79
2023/08/01 03:45:00;;;;;;;0.80;0.80;;;17.30;99.90;;;;;;5048343;28;20094;-79
2023/08/01 03:47:26;;;;;;;8.40;1.95;;;17.30;99.90;;;;;;5025446;28;20029;-87
2023/08/01 03:49:52;;;;;;;0.70;0.70;;;17.30;99.90;;;;;;5025757;28;20502;-78
2023/08/01 03:52:17;;;;;;;0.82;0.80;;;17.30;99.90;;;;;;5048050;28;20059;-85
2023/08/01 03:54:43;;;;;;;0.75;0.70;;;17.30;99.90;;;;;;5040658;28;20029;-84
2023/08/01 03:57:09;;;;;;;1.98;0.85;;;17.30;99.90;;;;;;5046296;28;20052;-83
2023/08/01 03:59:34;;;;;;;1.38;1.00;;;17.20;99.90;;;;;;5047020;28;20473;-83
2023/08/01 04:02:00;;;;;;;2.13;0.95;;;17.30;99.90;;;;;;5046946;28;20040;-79
2023/08/01 04:04:25;;;;;;;1.98;0.90;;;17.20;99.90;;;;;;5048790;28;20051;-79
2023/08/01 04:06:51;;;;;;;0.95;0.85;;;17.30;99.90;;;;;;5059668;28;20420;-80
2023/08/01 04:09:17;;;;;;;3.47;0.90;;;17.20;99.90;;;;;;5049705;28;20033;-77
2023/08/01 04:11:42;;;;;;;1.58;0.90;;;17.20;99.90;;;;;;5045456;28;20452;-84
2023/08/01 04:14:08;;;;;;;4.15;0.80;;;17.20;99.90;;;;;;5050141;28;20033;-87
2023/08/01 04:16:34;;;;;;;5.32;0.88;;;17.20;99.90;;;;;;5048396;28;20036;-80
2023/08/01 04:18:59;;;;;;;1.73;0.90;;;17.20;99.90;;;;;;5051824;28;20453;-83
2023/08/01 04:21:25;;;;;;;3.72;0.70;;;17.20;99.90;;;;;;5056654;28;20031;-79
2023/08/01 04:23:51;;;;;;;0.47;0.47;;;17.20;99.90;;;;;;5052715;28;20035;-75
2023/08/01 04:26:16;;;;;;;1.00;0.65;;;17.30;99.90;;;;;;5046606;28;20028;-78
2023/08/01 04:28:42;;;;;;;0.50;0.50;;;17.20;99.90;;;;;;5048096;28;20037;-79
2023/08/01 04:31:07;;;;;;;1.65;0.70;;;17.30;99.90;;;;;;5047210;28;20060;-78
2023/08/01 04:33:33;;;;;;;0.50;0.50;;;17.30;99.90;;;;;;5042636;28;20399;-78
2023/08/01 04:35:59;;;;;;;0.45;0.45;;;17.30;99.90;;;;;;5039376;28;20029;-76
2023/08/01 04:38:24;;;;;;;2.40;0.80;;;17.30;99.90;;;;;;5042949;28;20063;-78
2023/08/01 04:40:50;;;;;;;4.00;0.60;;;17.30;99.90;;;;;;5041865;28;20056;-80
2023/08/01 04:43:15;;;;;;;1.05;0.75;;;17.30;99.90;;;;;;5055032;28;20037;-82
2023/08/01 04:45:41;;;;;;;11.55;0.80;;;17.30;99.90;;;;;;5043318;28;20025;-78
2023/08/01 04:48:06;;;;;;;0.90;0.65;;;17.30;99.90;;;;;;5044150;28;20029;-76
2023/08/01 04:50:32;;;;;;;0.60;0.40;;;17.30;99.90;;;;;;5041751;28;20050;-76
2023/08/01 04:52:58;;;;;;;0.60;0.60;;;17.30;99.90;;;;;;5052267;28;20033;-77
2023/08/01 04:55:23;;;;;;;1.50;0.40;;;17.40;99.90;;;;;;5039469;28;20025;-76
2023/08/01 04:57:49;;;;;;;0.75;0.75;;;17.40;99.90;;;;;;5049144;28;20033;-76
2023/08/01 05:00:14;;;;;;;0.50;0.50;;;17.30;99.90;;;;;;5042820;28;20131;-76
2023/08/01 05:02:40;;;;;;;0.82;0.63;;;17.30;99.90;;;;;;5048657;28;20528;-78
2023/08/01 05:05:06;;;;;;;0.57;0.57;;;17.30;99.90;;;;;;5034596;28;20127;-80
2023/08/01 05:07:32;;;;;;;2.40;0.40;;;17.30;99.90;;;;;;5049717;28;20037;-80
2023/08/01 05:09:57;;;;;;;0.60;0.60;;;17.30;99.90;;;;;;5047291;28;20445;-84
2023/08/01 05:12:23;;;;;;;2.88;0.75;;;17.30;99.90;;;;;;5051718;28;20098;-81
2023/08/01 05:14:48;;;;;;;0.50;0.50;;;17.30;99.90;;;;;;5061439;28;20036;-75
2023/08/01 05:17:14;;;;;;;0.73;0.57;;;17.30;99.90;;;;;;5052790;28;20301;-77
2023/08/01 05:19:40;;;;;;;2.63;0.57;;;17.30;99.90;;;;;;5051512;28;20467;-76
2023/08/01 05:22:05;;;;;;;1.88;0.77;;;17.30;99.90;;;;;;5049118;28;20029;-77
2023/08/01 05:24:31;;;;;;;1.80;0.80;;;17.20;99.90;;;;;;5048416;28;20190;-76
2023/08/01 05:26:56;;;;;;;1.80;0.98;;;17.20;99.90;;;;;;5053994;28;20028;-76
2023/08/01 05:29:22;;;;;;;0.50;0.50;;;17.20;99.90;;;;;;5047729;28;20025;-76
2023/08/01 05:31:48;;;;;;;0.77;0.55;;;17.30;99.90;;;;;;5056630;28;20383;-77
2023/08/01 05:34:13;;;;;;;1.85;0.70;;;17.20;99.90;;;;;;5057645;28;20066;-75
2023/08/01 05:36:39;;;;;;;2.15;0.55;;;17.30;99.90;;;;;;5054175;28;20035;-76
2023/08/01 05:39:04;;;;;;;3.42;0.70;;;17.30;99.90;;;;;;5048839;28;20052;-76
2023/08/01 05:41:30;;;;;;;0.50;0.50;;;17.30;99.90;;;;;;5050781;28;20035;-77
2023/08/01 05:43:56;;;;;;;0.40;0.40;;;17.30;99.90;;;;;;5050332;28;20048;-78
2023/08/01 05:46:22;;;;;;;1.65;0.60;;;17.30;99.90;;;;;;5049249;28;20043;-76
2023/08/01 05:48:47;;;;;;;1.02;0.47;;;17.30;99.90;;;;;;5049588;28;20478;-78
2023/08/01 05:51:13;;;;;;;2.85;0.75;;;17.30;99.90;;;;;;5053298;28;20049;-77
2023/08/01 05:53:39;;;;;;;0.50;0.50;;;17.30;99.90;;;;;;5046154;28;20044;-78
2023/08/01 05:56:04;;;;;;;1.35;0.55;;;17.30;99.90;;;;;;5050749;28;20036;-77
2023/08/01 05:58:30;;;;;;;0.43;0.43;;;17.30;99.90;;;;;;5054086;28;20309;-77
2023/08/01 06:01:00;;;;;;;0.52;0.40;;;17.20;99.90;;;;;;5037975;28;20025;-77
2023/08/01 06:03:25;;;;;;;1.08;0.65;;;17.30;99.90;;;;;;5042659;28;20053;-78
2023/08/01 06:05:51;;;;;;;2.08;0.40;;;17.30;99.90;;;;;;5052398;28;20075;-77
2023/08/01 06:08:16;;;;;;;0.40;0.40;;;17.20;99.90;;;;;;5035382;28;20090;-77
2023/08/01 06:10:42;;;;;;;0.40;0.40;;;17.30;99.90;;;;;;5054427;28;20251;-78
2023/08/01 06:13:08;;;;;;;0.82;0.30;;;17.30;99.90;;;;;;5049569;28;20150;-79
2023/08/01 06:15:34;;;;;;;0.52;0.40;;;17.30;99.90;;;;;;5050479;28;20033;-76
2023/08/01 06:18:00;;;;;;;0.50;0.50;;;17.30;99.90;;;;;;5054643;28;20295;-77
2023/08/01 06:20:25;;;;;;;0.43;0.40;;;17.20;99.90;;;;;;5050321;28;20033;-77
2023/08/01 06:22:52;;;;;;;0.40;0.40;;;17.30;99.90;;;;;;5060363;28;20101;-77
2023/08/01 06:25:18;;;;;;;0.13;0.13;;;17.30;99.90;;;;;;5056297;28;20037;-77
2023/08/01 06:27:43;;;;;;;2.83;1.08;;;17.30;99.90;;;;;;5051348;28;20029;-77
2023/08/01 06:30:09;;;;;;;0.32;0.22;;;17.30;99.90;;;;;;5057106;28;20024;-77
2023/08/01 06:32:35;;;;;;;2.00;0.30;;;17.30;99.90;;;;;;5052833;28;20136;-78
2023/08/01 06:35:01;;;;;;;0.47;0.30;;;17.30;99.90;;;;;;5049513;28;20111;-78
2023/08/01 06:37:26;;;;;;;0.40;0.40;;;17.30;99.90;;;;;;5049936;28;20301;-78
2023/08/01 06:39:52;;;;;;;2.67;0.50;;;17.30;99.90;;;;;;5059912;28;20498;-78
2023/08/01 06:42:17;;;;;;;0.30;0.20;;;17.30;99.90;;;;;;5050702;28;20143;-76
2023/08/01 06:44:43;;;;;;;0.28;0.28;;;17.30;99.90;;;;;;5053428;28;20075;-77
2023/08/01 06:47:09;;;;;;;0.30;0.30;;;17.30;99.90;;;;;;5062112;28;20115;-78
2023/08/01 06:49:34;;;;;;;1.75;0.30;;;17.40;99.90;;;;;;5059631;28;20124;-77
2023/08/01 06:52:00;;;;;;;0.82;0.40;;;17.30;99.90;;;;;;5054633;28;20044;-77
2023/08/01 06:54:25;;;;;;;1.75;0.60;;;17.30;99.90;;;;;;5032252;28;20029;-77
2023/08/01 06:56:51;;;;;;;3.90;0.50;;;17.30;99.90;;;;;;5051397;28;20100;-77
2023/08/01 06:59:17;;;;;;;1.40;0.50;;;17.30;99.90;;;;;;5053025;28;20510;-77
2023/08/01 07:01:43;;;;;;;3.80;0.40;;;17.30;99.90;;;;;;5044540;28;20120;-77
2023/08/01 07:04:13;;;;;;;0.65;0.50;;;17.30;99.90;;;;;;5057780;28;20028;-77
2023/08/01 07:06:39;;;;;;;2.70;0.73;;;17.30;99.90;;;;;;5056199;28;20036;-77
2023/08/01 07:09:05;;;;;;;1.85;0.60;;;17.20;99.90;;;;;;5058703;28;20062;-77
2023/08/01 07:11:30;;;;;;;0.55;0.40;;;17.20;99.90;;;;;;5052064;28;20083;-76
2023/08/01 07:13:56;;;;;;;0.77;0.30;;;17.20;99.90;;;;;;5050208;28;20021;-77
2023/08/01 07:16:25;;;;;;;5.55;0.40;;;17.20;99.90;;;;;;5058875;28;20799;-77
2023/08/01 07:18:50;;;;;;;4.80;0.30;;;17.20;99.90;;;;;;5050150;28;20115;-77
2023/08/01 07:21:17;;;;;;;0.32;0.32;;;17.30;99.90;;;;;;5058072;28;20597;-77
2023/08/01 07:23:43;;;;;;;2.67;0.60;;;17.30;99.90;;;;;;5058104;28;20055;-78
2023/08/01 07:26:09;;;;;;;0.47;0.47;;;17.30;99.90;;;;;;5063507;28;20490;-77
2023/08/01 07:28:43;;;;;;;0.30;0.30;;;17.30;99.90;;;;;;5066011;28;20020;-77
2023/08/01 07:31:09;;;;;;;0.35;0.35;;;17.30;99.90;;;;;;5062891;28;20044;-78
2023/08/01 07:33:35;;;;;;;1.08;0.40;;;17.30;99.90;;;;;;5033898;28;20025;-77
2023/08/01 07:36:01;;;;;;;1.02;0.40;;;17.40;99.90;;;;;;5064544;28;20028;-78
2023/08/01 07:38:27;;;;;;;0.30;0.30;;;17.40;99.90;;;;;;5047515;28;20190;-78
2023/08/01 07:40:53;;;;;;;0.85;0.30;;;17.40;99.90;;;;;;5058190;28;20033;-78
2023/08/01 07:43:19;;;;;;;0.20;0.20;;;17.40;99.90;;;;;;5052715;28;20016;-77
2023/08/01 07:45:45;;;;;;;0.47;0.30;;;17.40;99.90;;;;;;5065082;28;20401;-78
2023/08/01 07:48:11;;;;;;;0.30;0.30;;;17.50;99.90;;;;;;5054039;28;20059;-78
2023/08/01 07:50:36;;;;;;;0.30;0.30;;;17.40;99.90;;;;;;5052866;28;20539;-77
2023/08/01 07:53:02;;;;;;;0.10;0.10;;;17.40;99.90;;;;;;5053435;28;20039;-77
2023/08/01 07:55:28;;;;;;;0.15;0.13;;;17.40;99.90;;;;;;5048459;28;20107;-78
2023/08/01 07:57:53;;;;;;;0.10;0.10;;;17.40;99.90;;;;;;5054834;28;20012;-79
2023/08/01 08:00:19;;;;;;;1.13;0.40;;;17.40;99.90;;;;;;5048296;28;20627;-78
2023/08/01 08:02:46;;;;;;;0.20;0.20;;;17.40;99.90;;;;;;5050149;28;20052;-78
2023/08/01 08:05:13;;;;;;;5.13;0.47;;;17.40;99.90;;;;;;5045292;28;20025;-78
2023/08/01 08:07:38;;;;;;;9.93;1.13;;;17.40;99.90;;;;;;5050622;28;20027;-82
2023/08/01 08:10:05;;;;;;;1.90;0.85;;;17.30;99.90;;;;;;5046275;28;20029;-82
2023/08/01 08:12:31;;;;;;;1.40;0.40;;;17.20;99.90;;;;;;5053036;28;20502;-80
2023/08/01 08:14:57;;;;;;;0.65;0.28;;;17.10;99.90;;;;;;5051992;28;20075;-81
2023/08/01 08:17:22;;;;;;;1.63;0.55;;;17.00;99.90;;;;;;5033171;28;20032;-82
2023/08/01 08:19:48;;;;;;;1.13;0.38;;;17.00;99.90;;;;;;5049113;28;20033;-80
2023/08/01 08:22:14;;;;;;;0.50;0.43;;;16.90;99.90;;;;;;5050199;28;20041;-80
2023/08/01 08:24:39;;;;;;;6.15;0.57;;;16.90;99.90;;;;;;5054409;28;20020;-81
2023/08/01 08:27:05;;;;;;;2.95;0.80;;;16.80;99.90;;;;;;5053807;28;20029;-82
2023/08/01 08:29:32;;;;;;;4.55;0.65;;;16.80;99.90;;;;;;5056006;28;20065;-82
2023/08/01 08:32:00;;;;;;;0.80;0.43;;;16.80;99.90;;;;;;5050241;28;20037;-83
2023/08/01 08:34:26;;;;;;;1.75;0.80;;;16.80;99.90;;;;;;5051378;28;20037;-82
2023/08/01 08:36:52;;;;;;;2.03;0.70;;;16.80;99.90;;;;;;5055870;28;20032;-82
2023/08/01 08:39:18;;;;;;;0.50;0.50;;;16.80;99.90;;;;;;5050063;28;20577;-81
2023/08/01 08:41:48;;;;;;;2.00;0.70;;;16.80;99.90;;;;;;5051154;28;20458;-82
2023/08/01 08:44:20;;;;;;;3.72;0.90;;;16.90;99.90;;;;;;5054342;28;20493;-82
2023/08/01 08:46:52;;;;;;;0.75;0.60;;;16.90;99.90;;;;;;5036159;28;20493;-82
2023/08/01 08:49:20;;;;;;;0.60;0.60;;;16.90;99.90;;;;;;5048761;28;20529;-81
2023/08/01 08:51:47;;;;;;;3.05;1.00;;;16.90;99.90;;;;;;5053416;28;20044;-82
2023/08/01 08:54:14;;;;;;;0.63;0.40;;;17.00;99.90;;;;;;5046968;28;20075;-81
2023/08/01 08:56:43;;;;;;;1.70;0.68;;;17.00;99.90;;;;;;5038020;28;20029;-81
2023/08/01 08:59:12;;;;;;;2.20;1.02;;;17.10;99.90;;;;;;5055089;28;20397;-82
2023/08/01 09:01:39;;;;;;;1.33;0.63;;;17.20;99.90;;;;;;5018671;28;20110;-82
2023/08/01 09:04:05;;;;;;;1.10;1.00;;;17.30;99.90;;;;;;5056256;28;20376;-84
2023/08/01 09:06:45;;;;;;;0.88;0.88;;;17.40;99.90;;;;;;5056747;28;20029;-82
2023/08/01 09:09:13;;;;;;;2.20;1.00;;;17.30;99.90;;;;;;5060368;28;20029;-82
2023/08/01 09:11:51;;;;;;;2.75;1.30;;;17.30;99.90;;;;;;5046635;28;20429;-82
2023/08/01 09:14:17;;;;;;;1.75;1.40;;;17.30;99.90;;;;;;5052911;28;20286;-82
2023/08/01 09:16:44;;;;;;;3.25;1.67;;;17.30;99.90;;;;;;5063546;28;20027;-82
2023/08/01 09:19:12;;;;;;;2.80;1.90;;;17.20;99.90;;;;;;5047067;28;20401;-80
2023/08/01 09:21:39;;;;;;;5.80;2.25;;;17.10;99.90;;;;;;5066381;28;20043;-82
2023/08/01 09:24:10;;;;;;;2.20;2.00;;;17.00;99.90;;;;;;5058131;28;20123;-81
2023/08/01 09:26:35;;;;;;;2.85;1.90;;;17.00;99.90;;;;;;5054037;28;20028;-80
2023/08/01 09:29:01;;;;;;;2.83;1.88;;;16.90;99.90;;;;;;5046986;28;20441;-83
2023/08/01 09:31:36;;;;;;;3.45;2.72;;;16.90;99.90;;;;;;5055338;28;20120;-82
2023/08/01 09:34:06;;;;;;;4.57;2.63;;;16.90;99.90;;;;;;5029315;28;20486;-79
2023/08/01 09:36:32;;;;;;;4.45;2.53;;;16.80;99.90;;;;;;5029248;28;20442;-80
2023/08/01 09:39:00;;;;;;;4.55;2.08;;;16.70;99.90;;;;;;5026521;28;20041;-87
2023/08/01 09:41:26;;;;;;;4.95;2.30;;;16.80;99.90;;;;;;5057411;28;20036;-80
2023/08/01 09:43:51;;;;;;;7.38;2.65;;;16.80;99.90;;;;;;5047687;28;20540;-80
2023/08/01 09:46:17;;;;;;;8.23;2.47;;;16.80;99.90;;;;;;5064727;28;20578;-85
2023/08/01 09:48:43;;;;;;;4.97;2.65;;;16.90;99.90;;;;;;5066132;28;20025;-81
2023/08/01 09:51:17;;;;;;;5.50;2.95;;;16.90;99.90;;;;;;5051023;28;20317;-80
2023/08/01 09:53:54;;;;;;;5.18;2.53;;;17.00;99.90;;;;;;5063014;28;20024;-82
2023/08/01 09:56:22;;;;;;;4.43;2.90;;;17.10;99.90;;;;;;5058266;28;20055;-80
2023/08/01 09:58:49;;;;;;;5.13;2.67;;;17.10;99.90;;;;;;5051051;28;20041;-81
2023/08/01 10:01:17;;;;;;;6.40;2.65;;;17.20;99.90;;;;;;5064554;28;20044;-80
2023/08/01 10:03:49;;;;;;;4.07;2.00;;;17.20;99.90;;;;;;5053356;28;20041;-78
2023/08/01 10:06:23;;;;;;;5.57;2.55;;;17.30;99.90;;;;;;5069063;28;20043;-79
2023/08/01 10:08:50;;;;;;;5.53;2.97;;;17.30;99.90;;;;;;5069048;28;20033;-80
2023/08/01 10:11:21;;;;;;;6.32;2.58;;;17.40;99.90;;;;;;5065464;28;20528;-79
2023/08/01 10:13:46;;;;;;;12.70;3.28;;;17.50;99.90;;;;;;5068342;28;20027;-81
2023/08/01 10:16:16;;;;;;;7.82;3.25;;;17.50;99.90;;;;;;5069892;28;20028;-79
2023/08/01 10:18:42;;;;;;;7.30;3.00;;;17.60;99.90;;;;;;5065688;28;20393;-79
2023/08/01 10:21:18;;;;;;;8.25;2.92;;;17.70;99.90;;;;;;5066588;28;20162;-79
2023/08/01 10:23:47;;;;;;;13.07;3.58;;;17.80;99.90;;;;;;5057418;28;20056;-83
2023/08/01 10:26:13;;;;;;;6.78;3.35;;;17.80;99.90;;;;;;5049767;28;20040;-79
2023/08/01 10:28:50;;;;;;;10.70;3.42;;;17.90;99.90;;;;;;5049614;28;20394;-81
2023/08/01 10:31:17;;;;;;;11.23;3.28;;;18.00;99.90;;;;;;5055200;28;20663;-79
2023/08/01 10:33:48;;;;;;;10.52;3.65;;;18.00;99.90;;;;;;5055208;28;20122;-79
2023/08/01 10:36:14;;;;;;;5.95;3.20;;;18.10;99.90;;;;;;5048587;28;20040;-82
2023/08/01 10:38:53;;;;;;;8.77;3.40;;;18.10;99.90;;;;;;5053955;28;20045;-79
2023/08/01 10:41:31;;;;;;;8.68;3.53;;;18.10;99.90;;;;;;5051588;28;20044;-82
2023/08/01 10:44:09;;;;;;;8.13;3.25;;;18.00;99.90;;;;;;5045644;28;20033;-81
2023/08/01 10:46:51;;;;;;;7.05;3.13;;;18.10;99.90;;;;;;5053133;28;20029;-86
2023/08/01 10:49:17;;;;;;;10.35;2.92;;;18.20;99.90;;;;;;5062093;28;20033;-79
2023/08/01 10:51:44;;;;;;;8.25;3.13;;;18.30;99.90;;;;;;5061685;28;20033;-78
2023/08/01 10:54:23;;;;;;;8.25;3.40;;;18.40;99.90;;;;;;5049056;28;20081;-82
2023/08/01 10:56:53;;;;;;;5.70;2.53;;;18.60;99.90;;;;;;5044121;28;20067;-83
2023/08/01 10:59:20;;;;;;;6.53;2.40;;;18.80;99.90;;;;;;5043686;28;20028;-81
2023/08/01 11:01:49;;;;;;;5.25;2.03;;;18.90;99.90;;;;;;5048149;28;20043;-82
2023/08/01 11:04:19;;;;;;;7.63;2.50;;;18.90;99.90;;;;;;5054637;28;20512;-79
2023/08/01 11:06:47;;;;;;;6.15;2.17;;;18.80;99.90;;;;;;5039491;28;20038;-82
2023/08/01 11:09:18;;;;;;;7.68;2.75;;;18.70;99.90;;;;;;5066244;28;20028;-79
2023/08/01 11:11:44;;;;;;;6.43;2.22;;;18.80;99.90;;;;;;5059074;28;20072;-79
2023/08/01 11:14:13;;;;;;;4.80;2.00;;;18.90;99.90;;;;;;5066928;28;20062;-80
2023/08/01 11:16:39;;;;;;;5.57;2.25;;;19.00;99.90;;;;;;5068903;28;20031;-79
2023/08/01 11:19:04;;;;;;;7.65;2.67;;;19.10;99.90;;;;;;5062817;28;20032;-81
2023/08/01 11:21:30;;;;;;;7.40;2.15;;;19.20;99.90;;;;;;5067377;28;20390;-78
2023/08/01 11:23:57;;;;;;;3.50;1.98;;;19.30;99.90;;;;;;5065648;28;20070;-80
2023/08/01 11:26:23;;;;;;;2.88;1.98;;;19.30;99.90;;;;;;5041893;28;20025;-80
2023/08/01 11:28:48;;;;;;;6.20;2.03;;;19.30;99.90;;;;;;5048923;28;20036;-79
2023/08/01 11:31:14;;;;;;;6.85;2.65;;;19.50;99.90;;;;;;5064981;28;20040;-80
2023/08/01 11:33:40;;;;;;;3.53;2.55;;;19.50;99.90;;;;;;5062081;28;20162;-82
2023/08/01 11:36:06;;;;;;;3.83;2.05;;;19.70;99.90;;;;;;5067165;28;20033;-79
2023/08/01 11:38:34;;;;;;;5.13;2.30;;;19.80;99.90;;;;;;5056106;28;20169;-79
2023/08/01 11:41:04;;;;;;;9.15;2.70;;;19.80;99.90;;;;;;5048679;28;20065;-79
2023/08/01 11:43:43;;;;;;;5.40;2.72;;;19.70;99.90;;;;;;5057411;28;20478;-79
2023/08/01 11:46:09;;;;;;;5.07;2.90;;;19.60;99.90;;;;;;5056883;28;20047;-80
2023/08/01 11:48:35;;;;;;;7.18;3.55;;;19.60;99.90;;;;;;5049263;28;20428;-80
2023/08/01 11:51:01;;;;;;;4.53;2.80;;;19.70;99.90;;;;;;5047300;28;20055;-84
2023/08/01 11:53:28;;;;;;;10.27;3.10;;;19.80;99.90;;;;;;5048113;28;20052;-82
2023/08/01 11:55:56;;;;;;;4.10;2.80;;;19.70;99.90;;;;;;5057274;28;20059;-81
2023/08/01 11:58:36;;;;;;;7.70;2.70;;;19.50;99.90;;;;;;5056288;28;20033;-78
2023/08/01 12:01:12;;;;;;;4.28;3.50;;;19.20;99.90;;;;;;5056574;28;20091;-79
2023/08/01 12:03:52;;;;;;;4.95;2.75;;;19.00;99.90;;;;;;5056195;28;20043;-81
2023/08/01 12:06:21;;;;;;;6.97;3.90;;;18.80;99.90;;;;;;5051242;28;20078;-81
2023/08/01 12:08:48;;;;;;;7.85;3.47;;;18.60;99.90;;;;;;5068346;28;20103;-79
2023/08/01 12:11:23;;;;;;;5.22;3.70;;;18.50;99.90;;;;;;5067562;28;20029;-78
2023/08/01 12:14:09;;;;;;;5.65;3.65;;;18.50;99.90;;;;;;5053209;28;20486;-82
2023/08/01 12:16:36;;;;;;;5.70;3.28;;;18.40;99.90;;;;;;5055949;28;20494;-79
2023/08/01 12:19:01;;;;;;;4.60;3.47;;;18.30;99.90;;;;;;5065446;28;20082;-80
2023/08/01 12:21:34;;;;;;;7.63;3.45;;;18.30;99.90;;;;;;5066462;28;20028;-80
2023/08/01 12:24:00;;;;;;;8.70;4.30;;;18.30;99.90;;;;;;5058041;28;20116;-79
2023/08/01 12:26:25;;;;;;;7.10;4.45;;;18.20;99.90;;;;;;5049646;28;20397;-80
2023/08/01 12:28:51;;;;;;;6.90;4.00;;;18.20;99.90;;;;;;5066662;28;20020;-88
2023/08/01 12:31:21;;;;;;;10.55;4.07;;;18.30;99.90;;;;;;5067608;28;20498;-78
2023/08/01 12:33:48;;;;;;;4.95;3.67;;;18.40;99.90;;;;;;5064981;28;20379;-79
2023/08/01 12:36:14;;;;;;;9.13;3.58;;;18.60;99.90;;;;;;5064970;28;20436;-86
2023/08/01 12:38:40;;;;;;;10.10;4.20;;;18.90;99.90;;;;;;5066408;28;20515;-80
2023/08/01 12:41:06;;;;;;;5.20;3.72;;;19.30;99.90;;;;;;5049424;28;20132;-82
2023/08/01 12:43:32;;;;;;;6.88;3.45;;;19.50;99.90;;;;;;5037471;28;20033;-79